createdAt,value
2018-06-09T00:00:26.964Z,2.67
2018-06-09T00:02:55.316Z,2.83
2018-06-09T00:05:23.665Z,2.47
2018-06-09T00:07:51.995Z,2.40
2018-06-09T00:10:20.350Z,2.83
2018-06-09T00:12:48.730Z,2.70
2018-06-09T00:15:17.542Z,2.97
2018-06-09T00:17:45.885Z,2.70
2018-06-09T00:20:14.214Z,2.97
2018-06-09T00:22:42.551Z,2.83
2018-06-09T00:25:10.899Z,3.20
2018-06-09T00:27:39.247Z,2.70
2018-06-09T00:30:07.599Z,2.77
2018-06-09T00:32:35.950Z,2.50
2018-06-09T00:35:04.316Z,3.00
2018-06-09T00:37:32.636Z,2.57
2018-06-09T00:40:00.971Z,3.07
2018-06-09T00:42:29.315Z,2.87
2018-06-09T00:44:57.653Z,2.80
2018-06-09T00:47:26.027Z,2.93
2018-06-09T00:49:54.359Z,2.90
2018-06-09T00:52:22.685Z,3.00
2018-06-09T00:54:51.028Z,2.90
2018-06-09T00:57:19.371Z,3.07
2018-06-09T00:59:47.714Z,2.90
2018-06-09T01:02:16.053Z,2.77
2018-06-09T01:04:44.450Z,2.93
2018-06-09T01:07:12.790Z,2.80
2018-06-09T01:09:41.128Z,3.37
2018-06-09T01:12:09.456Z,2.87
2018-06-09T01:14:37.791Z,2.60
2018-06-09T01:17:06.144Z,3.20
2018-06-09T01:19:34.487Z,3.10
2018-06-09T01:22:02.828Z,3.30
2018-06-09T01:24:31.141Z,3.30
2018-06-09T01:26:59.547Z,3.30
2018-06-09T01:29:27.883Z,3.20
2018-06-09T01:31:56.236Z,2.87
2018-06-09T01:34:24.569Z,2.93
2018-06-09T01:36:52.899Z,3.00
2018-06-09T01:39:21.204Z,3.03
2018-06-09T01:41:49.530Z,3.17
2018-06-09T01:44:17.855Z,3.30
2018-06-09T01:46:46.176Z,3.00
2018-06-09T01:49:14.519Z,3.40
2018-06-09T01:51:42.880Z,3.40
2018-06-09T01:54:11.284Z,3.30
2018-06-09T01:56:39.616Z,2.93
2018-06-09T01:59:07.930Z,3.00
2018-06-09T02:01:36.257Z,3.03
2018-06-09T02:04:04.601Z,3.10
2018-06-09T02:06:32.927Z,3.30
2018-06-09T02:09:01.247Z,3.40
2018-06-09T02:11:29.558Z,3.60
2018-06-09T02:13:57.897Z,3.50
2018-06-09T02:16:26.232Z,3.30
2018-06-09T02:18:54.548Z,3.60
2018-06-09T02:21:22.888Z,3.30
2018-06-09T02:23:51.208Z,3.30
2018-06-09T02:26:19.637Z,3.03
2018-06-09T02:28:47.968Z,3.13
2018-06-09T02:31:16.305Z,3.50
2018-06-09T02:33:44.614Z,3.43
2018-06-09T02:36:12.949Z,3.70
2018-06-09T02:38:41.252Z,3.30
2018-06-09T02:41:09.583Z,3.17
2018-06-09T02:43:37.899Z,3.40
2018-06-09T02:46:06.224Z,3.03
2018-06-09T02:48:34.554Z,3.20
2018-06-09T02:51:02.905Z,3.43
2018-06-09T02:53:31.233Z,3.43
2018-06-09T02:55:59.588Z,3.70
2018-06-09T02:58:27.965Z,3.53
2018-06-09T03:00:56.289Z,3.17
2018-06-09T03:03:24.656Z,3.43
2018-06-09T03:05:52.998Z,3.00
2018-06-09T03:08:21.302Z,3.47
2018-06-09T03:10:49.631Z,3.37
2018-06-09T03:13:17.955Z,3.33
2018-06-09T03:15:46.287Z,3.50
2018-06-09T03:18:14.603Z,3.10
2018-06-09T03:20:43.035Z,3.53
2018-06-09T03:23:11.404Z,3.77
2018-06-09T03:25:39.715Z,3.60
2018-06-09T03:28:08.037Z,3.63
2018-06-09T03:30:36.363Z,4.00
2018-06-09T03:33:04.728Z,3.53
2018-06-09T03:35:33.071Z,3.90
2018-06-09T03:38:01.428Z,3.87
2018-06-09T03:40:29.771Z,4.17
2018-06-09T03:42:58.075Z,3.87
2018-06-09T03:45:26.396Z,3.77
2018-06-09T03:47:54.726Z,3.63
2018-06-09T03:50:23.056Z,3.63
2018-06-09T03:52:51.387Z,3.90
2018-06-09T03:55:19.736Z,4.13
2018-06-09T03:57:48.080Z,3.80
2018-06-09T04:00:16.422Z,3.67
2018-06-09T04:02:44.741Z,4.03
2018-06-09T04:05:13.077Z,3.90
2018-06-09T04:07:41.536Z,3.50
2018-06-09T04:10:09.867Z,3.70
2018-06-09T04:12:38.216Z,3.93
2018-06-09T04:15:06.723Z,3.70
2018-06-09T04:17:35.076Z,4.10
2018-06-09T04:20:03.430Z,3.83
2018-06-09T04:22:31.776Z,3.90
2018-06-09T04:25:00.111Z,4.27
2018-06-09T04:27:28.431Z,3.57
2018-06-09T04:29:57.555Z,4.17
2018-06-09T04:32:25.905Z,4.30
2018-06-09T04:34:54.244Z,3.87
2018-06-09T04:37:22.595Z,3.87
2018-06-09T04:39:50.971Z,4.00
2018-06-09T04:42:19.349Z,4.17
2018-06-09T04:44:47.761Z,3.53
2018-06-09T04:47:16.077Z,3.97
2018-06-09T04:49:44.441Z,3.60
2018-06-09T04:52:12.838Z,4.20
2018-06-09T04:54:41.149Z,3.90
2018-06-09T04:57:09.496Z,3.80
2018-06-09T04:59:37.833Z,4.03
2018-06-09T05:02:06.210Z,4.07
2018-06-09T05:04:34.527Z,3.43
2018-06-09T05:07:02.966Z,3.90
2018-06-09T05:09:31.323Z,3.70
2018-06-09T05:11:59.664Z,3.70
2018-06-09T05:14:28.020Z,3.60
2018-06-09T05:16:56.355Z,3.83
2018-06-09T05:19:24.701Z,3.67
2018-06-09T05:21:53.047Z,3.53
2018-06-09T05:24:21.390Z,3.43
2018-06-09T05:26:49.733Z,4.00
2018-06-09T05:29:18.072Z,3.67
2018-06-09T05:31:46.423Z,3.37
2018-06-09T05:34:14.767Z,4.47
2018-06-09T05:36:43.108Z,3.57
2018-06-09T05:39:11.485Z,3.57
2018-06-09T05:41:39.838Z,3.70
2018-06-09T05:44:08.217Z,2.90
2018-06-09T05:46:36.599Z,3.67
2018-06-09T05:49:04.944Z,3.33
2018-06-09T05:51:33.282Z,3.37
2018-06-09T05:54:01.630Z,3.53
2018-06-09T05:56:29.971Z,3.37
2018-06-09T05:58:58.393Z,3.40
2018-06-09T06:01:26.770Z,3.40
2018-06-09T06:03:55.138Z,3.37
2018-06-09T06:06:23.496Z,3.67
2018-06-09T06:08:51.832Z,3.47
2018-06-09T06:11:20.181Z,3.33
2018-06-09T06:13:48.515Z,3.90
2018-06-09T06:16:16.870Z,3.47
2018-06-09T06:18:45.265Z,3.20
2018-06-09T06:21:13.559Z,3.40
2018-06-09T06:23:41.902Z,3.50
2018-06-09T06:26:10.234Z,3.70
2018-06-09T06:28:38.587Z,3.10
2018-06-09T06:31:06.936Z,3.73
2018-06-09T06:33:35.287Z,3.30
2018-06-09T06:36:03.673Z,3.40
2018-06-09T06:38:32.077Z,3.07
2018-06-09T06:41:00.429Z,3.37
2018-06-09T06:43:28.760Z,3.05
2018-06-09T06:45:57.080Z,2.98
2018-06-09T06:48:25.424Z,2.55
2018-06-09T06:50:53.766Z,2.80
2018-06-09T06:53:22.113Z,2.77
2018-06-09T06:55:50.449Z,2.60
2018-06-09T06:58:18.773Z,2.58
2018-06-09T07:00:47.104Z,2.42
2018-06-09T07:03:15.456Z,2.50
2018-06-09T07:05:43.804Z,2.42
2018-06-09T07:08:12.148Z,2.65
2018-06-09T07:10:40.493Z,2.42
2018-06-09T07:13:08.858Z,2.20
2018-06-09T07:15:37.223Z,2.80
2018-06-09T07:18:05.601Z,2.40
2018-06-09T07:20:33.954Z,2.55
2018-06-09T07:23:02.295Z,2.58
2018-06-09T07:25:30.631Z,2.15
2018-06-09T07:27:58.978Z,2.35
2018-06-09T07:30:27.321Z,2.20
2018-06-09T07:32:55.638Z,2.10
2018-06-09T07:35:23.978Z,2.22
2018-06-09T07:37:52.323Z,2.58
2018-06-09T07:40:20.674Z,2.30
2018-06-09T07:42:49.013Z,2.30
2018-06-09T07:45:17.371Z,2.30
2018-06-09T07:47:45.693Z,2.55
2018-06-09T07:50:14.041Z,2.27
2018-06-09T07:52:42.418Z,2.45
2018-06-09T07:55:10.779Z,2.67
2018-06-09T07:57:39.104Z,2.70
2018-06-09T08:00:07.428Z,2.50
2018-06-09T08:02:35.819Z,2.67
2018-06-09T08:05:04.185Z,2.33
2018-06-09T08:07:32.498Z,2.58
2018-06-09T08:10:00.835Z,2.37
2018-06-09T08:12:29.150Z,2.47
2018-06-09T08:14:58.079Z,2.65
2018-06-09T08:17:26.423Z,2.37
2018-06-09T08:19:54.816Z,2.67
2018-06-09T08:22:23.171Z,3.30
2018-06-09T08:24:51.507Z,2.67
2018-06-09T08:27:19.868Z,2.77
2018-06-09T08:29:48.214Z,2.60
2018-06-09T08:32:16.600Z,3.10
2018-06-09T08:34:44.978Z,3.40
2018-06-09T08:37:13.320Z,3.25
2018-06-09T08:39:41.659Z,3.40
2018-06-09T08:42:10.027Z,3.75
2018-06-09T08:44:38.866Z,3.85
2018-06-09T08:47:07.237Z,3.83
2018-06-09T08:49:35.587Z,4.10
2018-06-09T08:52:04.002Z,3.83
2018-06-09T08:54:32.395Z,3.85
2018-06-09T08:57:00.760Z,3.87
2018-06-09T08:59:29.101Z,3.52
2018-06-09T09:01:57.450Z,3.60
2018-06-09T09:04:25.797Z,3.45
2018-06-09T09:06:54.133Z,3.17
2018-06-09T09:09:22.490Z,2.98
2018-06-09T09:11:50.803Z,3.00
2018-06-09T09:14:19.197Z,3.10
2018-06-09T09:16:47.519Z,3.12
2018-06-09T09:19:15.895Z,2.90
2018-06-09T09:21:44.253Z,2.72
2018-06-09T09:24:12.592Z,2.65
2018-06-09T09:26:40.936Z,2.80
2018-06-09T09:29:09.271Z,2.72
2018-06-09T09:31:37.658Z,2.65
2018-06-09T09:34:06.177Z,2.30
2018-06-09T09:36:34.549Z,2.72
2018-06-09T09:39:02.932Z,2.50
2018-06-09T09:41:31.479Z,2.37
2018-06-09T09:43:59.951Z,2.62
2018-06-09T09:46:28.350Z,2.30
2018-06-09T09:48:56.802Z,2.52
2018-06-09T09:51:25.167Z,2.20
2018-06-09T09:53:53.522Z,2.60
2018-06-09T09:56:21.893Z,2.10
2018-06-09T09:58:50.241Z,2.02
2018-06-09T10:01:18.576Z,1.80
2018-06-09T10:03:46.915Z,2.20
2018-06-09T10:06:15.265Z,2.12
2018-06-09T10:08:43.655Z,2.25
2018-06-09T10:11:11.996Z,2.20
2018-06-09T10:13:40.307Z,1.70
2018-06-09T10:16:08.705Z,1.70
2018-06-09T10:18:37.066Z,2.00
2018-06-09T10:21:05.481Z,1.92
2018-06-09T10:23:33.826Z,1.80
2018-06-09T10:26:02.160Z,2.17
2018-06-09T10:28:30.482Z,2.00
2018-06-09T10:30:58.975Z,2.10
2018-06-09T10:33:27.306Z,2.02
2018-06-09T10:35:55.663Z,2.20
2018-06-09T10:38:23.988Z,1.85
2018-06-09T10:40:52.307Z,2.05
2018-06-09T10:43:20.710Z,2.33
2018-06-09T10:45:49.072Z,2.10
2018-06-09T10:48:17.474Z,2.08
2018-06-09T10:50:45.847Z,2.33
2018-06-09T10:53:14.304Z,2.10
2018-06-09T10:55:42.743Z,2.08
2018-06-09T10:58:11.139Z,2.20
2018-06-09T11:00:52.870Z,2.40
2018-06-09T11:03:21.284Z,2.80
2018-06-09T11:05:49.641Z,2.20
2018-06-09T11:08:18.013Z,2.45
2018-06-09T11:10:46.511Z,2.52
2018-06-09T11:13:14.865Z,2.47
2018-06-09T11:15:43.249Z,2.50
2018-06-09T11:18:11.628Z,2.60
2018-06-09T11:20:40.053Z,2.40
2018-06-09T11:23:08.412Z,2.45
2018-06-09T11:25:36.765Z,2.70
2018-06-09T11:28:05.165Z,2.80
2018-06-09T11:30:33.528Z,2.65
2018-06-09T11:33:01.911Z,2.70
2018-06-09T11:35:31.178Z,2.70
2018-06-09T11:37:59.540Z,2.70
2018-06-09T11:40:28.161Z,2.55
2018-06-09T11:42:56.495Z,2.97
2018-06-09T11:45:24.828Z,2.70
2018-06-09T11:47:53.177Z,2.60
2018-06-09T11:50:21.524Z,2.93
2018-06-09T11:52:49.860Z,2.30
2018-06-09T11:55:18.241Z,2.73
2018-06-09T11:57:46.587Z,2.70
2018-06-09T12:00:14.936Z,2.60
2018-06-09T12:02:43.304Z,3.03
2018-06-09T12:05:11.651Z,2.90
2018-06-09T12:07:39.999Z,2.87
2018-06-09T12:10:08.336Z,3.00
2018-06-09T12:12:36.728Z,3.10
2018-06-09T12:15:05.678Z,3.60
2018-06-09T12:17:34.035Z,3.30
2018-06-09T12:20:02.407Z,3.20
2018-06-09T12:22:30.754Z,3.27
2018-06-09T12:24:59.167Z,3.20
2018-06-09T12:27:27.604Z,3.23
2018-06-09T12:29:55.956Z,3.10
2018-06-09T12:32:24.356Z,3.00
2018-06-09T12:34:52.708Z,3.40
2018-06-09T12:37:21.045Z,3.20
2018-06-09T12:39:49.425Z,3.03
2018-06-09T12:42:17.778Z,3.00
2018-06-09T12:44:46.112Z,3.47
2018-06-09T12:47:14.532Z,3.40
2018-06-09T12:49:42.921Z,3.40
2018-06-09T12:52:11.264Z,3.40
2018-06-09T12:54:39.638Z,3.37
2018-06-09T12:57:07.995Z,3.40
2018-06-09T12:59:36.332Z,3.47
2018-06-09T13:02:04.677Z,3.40
2018-06-09T13:04:33.021Z,3.23
2018-06-09T13:07:01.408Z,3.17
2018-06-09T13:09:29.783Z,3.70
2018-06-09T13:11:58.148Z,3.87
2018-06-09T13:14:26.481Z,3.53
2018-06-09T13:16:54.854Z,3.83
2018-06-09T13:19:23.231Z,3.53
2018-06-09T13:21:51.607Z,3.40
2018-06-09T13:24:19.998Z,3.30
2018-06-09T13:26:48.374Z,3.37
2018-06-09T13:29:16.767Z,3.30
2018-06-09T13:31:45.151Z,3.43
2018-06-09T13:34:13.537Z,3.73
2018-06-09T13:36:41.957Z,3.43
2018-06-09T13:39:10.380Z,3.43
2018-06-09T13:41:38.742Z,3.53
2018-06-09T13:44:07.063Z,3.47
2018-06-09T13:46:35.429Z,3.20
2018-06-09T13:49:03.804Z,3.50
2018-06-09T13:51:32.141Z,3.60
2018-06-09T13:54:00.505Z,3.57
2018-06-09T13:56:28.848Z,3.63
2018-06-09T13:58:57.679Z,3.70
2018-06-09T14:01:26.135Z,3.47
2018-06-09T14:03:54.463Z,3.50
2018-06-09T14:06:22.780Z,3.73
2018-06-09T14:08:51.114Z,3.40
2018-06-09T14:11:19.495Z,3.73
2018-06-09T14:13:47.838Z,3.40
2018-06-09T14:16:16.184Z,3.87
2018-06-09T14:18:44.536Z,3.63
2018-06-09T14:21:12.884Z,3.40
2018-06-09T14:23:41.224Z,3.80
2018-06-09T14:26:09.568Z,3.70
2018-06-09T14:28:37.917Z,3.67
2018-06-09T14:31:06.256Z,3.97
2018-06-09T14:33:34.606Z,3.20
2018-06-09T14:36:02.948Z,3.60
2018-06-09T14:38:31.290Z,3.60
2018-06-09T14:40:59.658Z,3.67
2018-06-09T14:43:28.037Z,3.57
2018-06-09T14:45:56.361Z,3.40
2018-06-09T14:48:24.746Z,3.60
2018-06-09T14:50:53.128Z,3.47
2018-06-09T14:53:21.464Z,3.40
2018-06-09T14:55:49.858Z,3.27
2018-06-09T14:58:18.229Z,3.53
2018-06-09T15:00:46.571Z,3.50
2018-06-09T15:03:14.916Z,3.23
2018-06-09T15:05:43.259Z,3.33
2018-06-09T15:08:11.660Z,3.80
2018-06-09T15:10:40.059Z,3.40
2018-06-09T15:13:08.408Z,3.43
2018-06-09T15:15:36.779Z,3.47
2018-06-09T15:18:05.144Z,3.67
2018-06-09T15:20:33.499Z,3.90
2018-06-09T15:23:01.874Z,3.40
2018-06-09T15:25:30.234Z,3.30
2018-06-09T15:27:58.611Z,3.87
2018-06-09T15:30:26.952Z,3.50
2018-06-09T15:32:55.309Z,3.50
2018-06-09T15:35:23.669Z,3.20
2018-06-09T15:37:51.983Z,3.30
2018-06-09T15:40:20.327Z,3.80
2018-06-09T15:42:48.708Z,3.43
2018-06-09T15:45:17.126Z,3.23
2018-06-09T15:47:45.488Z,3.03
2018-06-09T15:50:13.843Z,3.60
2018-06-09T15:52:42.166Z,3.60
2018-06-09T15:55:10.545Z,3.47
2018-06-09T15:57:38.890Z,3.60
2018-06-09T16:00:07.229Z,3.00
2018-06-09T16:02:35.664Z,3.33
2018-06-09T16:05:04.022Z,3.30
2018-06-09T16:07:32.361Z,3.23
2018-06-09T16:10:00.723Z,3.87
2018-06-09T16:12:29.184Z,3.27
2018-06-09T16:14:57.533Z,3.57
2018-06-09T16:17:25.920Z,3.60
2018-06-09T16:19:54.258Z,3.57
2018-06-09T16:22:22.664Z,3.40
2018-06-09T16:24:51.015Z,3.60
2018-06-09T16:27:19.383Z,3.50
2018-06-09T16:29:47.707Z,3.57
2018-06-09T16:32:16.051Z,3.43
2018-06-09T16:34:44.412Z,3.50
2018-06-09T16:37:12.744Z,3.27
2018-06-09T16:39:41.103Z,3.83
2018-06-09T16:42:09.424Z,3.73
2018-06-09T16:44:37.800Z,3.60
2018-06-09T16:47:06.136Z,3.57
2018-06-09T16:49:34.496Z,3.40
2018-06-09T16:52:02.901Z,3.57
2018-06-09T16:54:31.284Z,4.17
2018-06-09T16:56:59.602Z,3.47
2018-06-09T16:59:27.978Z,3.60
2018-06-09T17:01:56.330Z,3.60
2018-06-09T17:04:24.655Z,3.27
2018-06-09T17:06:52.985Z,3.97
2018-06-09T17:09:21.359Z,3.50
2018-06-09T17:11:49.705Z,3.50
2018-06-09T17:14:18.050Z,3.60
2018-06-09T17:16:46.384Z,4.10
2018-06-09T17:19:14.739Z,3.70
2018-06-09T17:21:43.096Z,3.80
2018-06-09T17:24:11.431Z,4.23
2018-06-09T17:26:39.779Z,4.93
2018-06-09T17:29:08.126Z,4.17
2018-06-09T17:31:36.494Z,3.97
2018-06-09T17:34:04.872Z,3.80
2018-06-09T17:36:33.289Z,3.80
2018-06-09T17:39:01.647Z,3.63
2018-06-09T17:41:30.489Z,3.40
2018-06-09T17:43:58.985Z,3.97
2018-06-09T17:46:27.638Z,3.97
2018-06-09T17:48:56.046Z,4.10
2018-06-09T17:51:24.653Z,3.80
2018-06-09T17:53:53.619Z,4.00
2018-06-09T17:56:22.059Z,3.83
2018-06-09T17:58:50.452Z,4.37
2018-06-09T18:01:18.844Z,4.17
2018-06-09T18:03:47.270Z,3.77
2018-06-09T18:06:16.671Z,3.67
2018-06-09T18:08:45.050Z,3.90
2018-06-09T18:11:14.283Z,4.07
2018-06-09T18:13:42.914Z,4.33
2018-06-09T18:16:11.323Z,5.07
2018-06-09T18:18:39.718Z,5.80
2018-06-09T18:21:08.139Z,5.07
2018-06-09T18:23:36.569Z,5.90
2018-06-09T18:26:05.018Z,5.23
2018-06-09T18:28:33.441Z,5.93
2018-06-09T18:31:01.808Z,5.83
2018-06-09T18:33:30.181Z,5.63
2018-06-09T18:35:58.943Z,5.57
2018-06-09T18:38:28.374Z,5.90
2018-06-09T18:40:57.405Z,6.00
2018-06-09T18:43:26.353Z,6.20
2018-06-09T18:45:54.736Z,6.53
2018-06-09T18:48:23.122Z,6.33
2018-06-09T18:50:51.626Z,6.47
2018-06-09T18:53:20.422Z,6.10
2018-06-09T18:55:48.787Z,6.07
2018-06-09T18:58:18.033Z,6.23
2018-06-09T19:00:46.590Z,5.90
2018-06-09T19:03:15.016Z,6.70
2018-06-09T19:06:00.178Z,5.97
2018-06-09T19:08:28.552Z,5.77
2018-06-09T19:10:57.067Z,6.13
2018-06-09T19:13:40.312Z,6.17
2018-06-09T19:16:08.925Z,6.30
2018-06-09T19:18:39.478Z,6.33
2018-06-09T19:21:07.924Z,6.37
2018-06-09T19:23:36.306Z,6.33
2018-06-09T19:26:07.288Z,6.70
2018-06-09T19:28:35.750Z,6.80
2018-06-09T19:31:04.212Z,6.63
2018-06-09T19:33:49.748Z,6.73
2018-06-09T19:36:18.204Z,6.20
2018-06-09T19:38:47.482Z,7.43
2018-06-09T19:41:16.582Z,6.90
2018-06-09T19:43:45.525Z,6.93
2018-06-09T19:46:14.312Z,7.00
2018-06-09T19:48:42.817Z,6.77
2018-06-09T19:51:11.235Z,6.97
2018-06-09T19:53:39.629Z,6.97
2018-06-09T19:56:08.471Z,7.57
2018-06-09T19:58:36.955Z,7.33
2018-06-09T20:01:06.784Z,9.40
2018-06-09T20:03:35.213Z,7.53
2018-06-09T20:06:03.690Z,7.33
2018-06-09T20:08:32.089Z,7.60
2018-06-09T20:11:00.660Z,7.47
2018-06-09T20:13:29.120Z,7.67
2018-06-09T20:15:57.532Z,8.03
2018-06-09T20:18:25.947Z,7.33
2018-06-09T20:20:54.624Z,7.80
2018-06-09T20:23:23.702Z,8.43
2018-06-09T20:25:53.186Z,7.67
2018-06-09T20:28:21.712Z,7.93
2018-06-09T20:30:50.080Z,8.20
2018-06-09T20:33:18.496Z,7.57
2018-06-09T20:35:46.876Z,8.47
2018-06-09T20:38:15.455Z,8.30
2018-06-09T20:40:43.910Z,7.23
2018-06-09T20:43:12.414Z,8.17
2018-06-09T20:45:40.823Z,8.10
2018-06-09T20:48:09.200Z,7.90
2018-06-09T20:50:37.555Z,8.60
2018-06-09T20:53:05.916Z,8.40
2018-06-09T20:55:34.931Z,8.07
2018-06-09T20:58:04.178Z,8.37
2018-06-09T21:00:32.624Z,8.50
2018-06-09T21:03:01.194Z,8.57
2018-06-09T21:05:29.543Z,8.30
2018-06-09T21:07:57.882Z,9.10
2018-06-09T21:10:26.272Z,9.07
2018-06-09T21:12:55.052Z,9.60
2018-06-09T21:15:24.016Z,9.47
2018-06-09T21:17:52.416Z,8.90
2018-06-09T21:20:20.817Z,9.87
2018-06-09T21:22:49.265Z,8.60
2018-06-09T21:25:17.698Z,9.80
2018-06-09T21:27:51.409Z,9.40
2018-06-09T21:30:25.207Z,9.50
2018-06-09T21:32:58.889Z,9.70
2018-06-09T21:35:43.712Z,9.33
2018-06-09T21:38:18.076Z,9.53
2018-06-09T21:40:49.520Z,8.70
2018-06-09T21:43:23.182Z,9.30
2018-06-09T21:45:52.323Z,9.13
2018-06-09T21:48:21.104Z,9.40
2018-06-09T21:50:50.032Z,9.07
2018-06-09T21:53:18.456Z,10.63
2018-06-09T21:55:47.023Z,9.83
2018-06-09T21:58:15.438Z,9.23
2018-06-09T22:00:43.791Z,9.53
2018-06-09T22:03:12.192Z,9.47
2018-06-09T22:05:40.589Z,9.57
2018-06-09T22:08:08.998Z,9.43
2018-06-09T22:10:37.412Z,8.50
2018-06-09T22:13:05.939Z,9.60
2018-06-09T22:15:34.364Z,10.07
2018-06-09T22:18:02.792Z,10.47
2018-06-09T22:20:31.491Z,9.10
2018-06-09T22:23:00.135Z,9.60
2018-06-09T22:25:33.821Z,10.00
2018-06-09T22:28:02.273Z,9.70
2018-06-09T22:30:30.687Z,9.50
2018-06-09T22:32:59.076Z,9.47
2018-06-09T22:35:27.472Z,10.13
2018-06-09T22:37:55.921Z,10.40
2018-06-09T22:40:24.298Z,11.27
2018-06-09T22:42:52.652Z,10.30
2018-06-09T22:45:21.057Z,11.13
2018-06-09T22:47:49.441Z,10.90
2018-06-09T22:50:17.837Z,10.90
2018-06-09T22:52:46.269Z,10.57
2018-06-09T22:55:14.713Z,11.10
2018-06-09T22:57:43.167Z,10.03
2018-06-09T23:00:17.071Z,11.63
2018-06-09T23:02:45.532Z,11.00
2018-06-09T23:05:13.960Z,10.83
2018-06-09T23:07:42.323Z,11.10
2018-06-09T23:10:10.759Z,11.80
2018-06-09T23:12:39.138Z,12.00
2018-06-09T23:15:07.553Z,11.20
2018-06-09T23:17:35.903Z,11.60
2018-06-09T23:20:04.315Z,10.60
2018-06-09T23:22:32.711Z,10.97
2018-06-09T23:25:01.076Z,11.80
2018-06-09T23:27:29.886Z,12.33
2018-06-09T23:29:58.472Z,11.50
2018-06-09T23:32:27.038Z,11.10
2018-06-09T23:34:55.554Z,11.57
2018-06-09T23:37:24.174Z,10.47
2018-06-09T23:39:52.675Z,12.00
2018-06-09T23:42:21.091Z,10.73
2018-06-09T23:44:49.579Z,11.13
2018-06-09T23:47:18.103Z,12.00
2018-06-09T23:49:46.720Z,11.50
2018-06-09T23:52:16.265Z,11.77
2018-06-09T23:54:44.838Z,12.27
2018-06-09T23:57:13.695Z,10.97
2018-06-09T23:59:42.273Z,11.30
